createdAt,value
2023-03-27T00:00:47.047Z,1.90
2023-03-27T00:01:48.521Z,2.00
2023-03-27T00:02:51.475Z,2.20
2023-03-27T00:03:53.550Z,2.10
2023-03-27T00:04:55.697Z,1.98
2023-03-27T00:06:06.861Z,1.80
2023-03-27T00:07:09.181Z,1.95
2023-03-27T00:08:10.659Z,2.05
2023-03-27T00:09:12.088Z,1.75
2023-03-27T00:10:13.505Z,1.90
2023-03-27T00:11:15.583Z,2.15
2023-03-27T00:13:18.336Z,1.88
2023-03-27T00:14:20.188Z,1.80
2023-03-27T00:15:22.143Z,1.90
2023-03-27T00:16:26.757Z,2.05
2023-03-27T00:17:28.491Z,1.95
2023-03-27T00:18:29.922Z,2.05
2023-03-27T00:19:31.376Z,1.80
2023-03-27T00:20:37.424Z,1.40
2023-03-27T00:21:39.196Z,2.25
2023-03-27T00:22:40.994Z,1.92
2023-03-27T00:23:42.644Z,2.13
2023-03-27T00:24:44.113Z,1.65
2023-03-27T00:25:49.743Z,2.22
2023-03-27T00:26:52.055Z,1.85
2023-03-27T00:27:58.400Z,1.77
2023-03-27T00:28:59.873Z,1.83
2023-03-27T00:30:01.490Z,2.10
2023-03-27T00:31:03.514Z,1.80
2023-03-27T00:33:08.816Z,2.33
2023-03-27T00:34:10.482Z,1.83
2023-03-27T00:35:13.483Z,1.60
2023-03-27T00:36:15.290Z,1.77
2023-03-27T00:37:16.879Z,1.60
2023-03-27T00:38:18.908Z,1.83
2023-03-27T00:39:20.533Z,2.33
2023-03-27T00:40:22.148Z,2.03
2023-03-27T00:41:24.129Z,2.17
2023-03-27T00:42:26.267Z,1.92
2023-03-27T00:44:34.827Z,1.67
2023-03-27T00:45:37.795Z,1.73
2023-03-27T00:46:44.848Z,1.77
2023-03-27T00:47:49.293Z,1.83
2023-03-27T00:48:52.497Z,1.58
2023-03-27T00:49:54.937Z,1.80
2023-03-27T00:50:57.473Z,2.08
2023-03-27T00:52:01.995Z,2.03
2023-03-27T00:53:10.525Z,1.90
2023-03-27T00:54:21.766Z,1.83
2023-03-27T00:55:26.764Z,1.80
2023-03-27T00:56:28.332Z,2.20
2023-03-27T00:57:30.542Z,1.95
2023-03-27T00:58:39.502Z,2.05
2023-03-27T00:59:42.487Z,1.70
2023-03-27T01:00:44.044Z,1.95
2023-03-27T01:01:46.184Z,1.77
2023-03-27T01:02:49.877Z,1.80
2023-03-27T01:03:53.810Z,1.83
2023-03-27T01:04:56.671Z,2.13
2023-03-27T01:06:01.538Z,1.75
2023-03-27T01:07:05.404Z,1.77
2023-03-27T01:08:07.500Z,1.65
2023-03-27T01:10:11.646Z,1.60
2023-03-27T01:12:43.615Z,1.85
2023-03-27T01:13:54.277Z,1.85
2023-03-27T01:15:25.278Z,1.83
2023-03-27T01:16:26.655Z,1.65
2023-03-27T01:17:46.938Z,1.95
2023-03-27T01:18:54.113Z,1.50
2023-03-27T01:20:32.401Z,1.73
2023-03-27T01:21:44.494Z,1.92
2023-03-27T01:23:36.332Z,2.10
2023-03-27T01:25:34.193Z,1.83
2023-03-27T01:27:03.715Z,2.25
2023-03-27T01:28:37.150Z,1.83
2023-03-27T01:30:00.728Z,2.08
2023-03-27T01:31:02.924Z,1.98
2023-03-27T01:32:19.077Z,2.33
2023-03-27T01:33:32.598Z,2.05
2023-03-27T01:34:36.893Z,2.10
2023-03-27T01:35:55.375Z,2.05
2023-03-27T01:37:11.314Z,2.03
2023-03-27T01:38:47.547Z,2.10
2023-03-27T01:40:01.865Z,2.10
2023-03-27T01:41:39.018Z,2.30
2023-03-27T01:43:05.849Z,2.22
2023-03-27T01:44:16.858Z,1.92
2023-03-27T01:45:35.656Z,1.77
2023-03-27T01:46:54.116Z,2.25
2023-03-27T01:48:06.827Z,2.15
2023-03-27T01:49:18.978Z,1.90
2023-03-27T01:50:56.753Z,2.15
2023-03-27T01:52:01.826Z,2.28
2023-03-27T01:53:13.835Z,2.15
2023-03-27T01:54:24.725Z,2.00
2023-03-27T01:55:30.240Z,2.03
2023-03-27T01:56:39.329Z,2.25
2023-03-27T01:57:50.008Z,2.28
2023-03-27T01:58:55.566Z,2.13
2023-03-27T02:00:17.977Z,2.13
2023-03-27T02:01:33.654Z,2.17
2023-03-27T02:02:36.280Z,2.30
2023-03-27T02:03:43.754Z,3.15
2023-03-27T02:04:53.020Z,2.15
2023-03-27T02:06:00.872Z,1.80
2023-03-27T02:07:08.365Z,2.30
2023-03-27T02:08:39.008Z,2.05
2023-03-27T02:09:47.479Z,2.15
2023-03-27T02:10:55.046Z,2.28
2023-03-27T02:11:58.625Z,2.05
2023-03-27T02:13:06.960Z,1.75
2023-03-27T02:14:20.184Z,2.03
2023-03-27T02:15:27.638Z,1.85
2023-03-27T02:16:34.213Z,1.60
2023-03-27T02:17:38.570Z,1.77
2023-03-27T02:18:47.606Z,1.63
2023-03-27T02:20:11.159Z,2.00
2023-03-27T02:21:14.089Z,1.20
2023-03-27T02:22:16.178Z,1.55
2023-03-27T02:24:19.647Z,1.65
2023-03-27T02:26:23.260Z,1.70
2023-03-27T02:27:44.903Z,2.20
2023-03-27T02:29:20.625Z,1.85
2023-03-27T02:30:36.672Z,1.83
2023-03-27T02:31:38.463Z,2.03
2023-03-27T02:34:04.216Z,1.63
2023-03-27T02:35:12.513Z,1.83
2023-03-27T02:36:38.027Z,1.83
2023-03-27T02:38:01.452Z,1.90
2023-03-27T02:39:29.149Z,1.20
2023-03-27T02:40:55.684Z,1.63
2023-03-27T02:42:35.959Z,1.60
2023-03-27T02:43:46.736Z,1.75
2023-03-27T02:45:10.271Z,1.73
2023-03-27T02:46:38.604Z,1.52
2023-03-27T02:47:47.249Z,1.73
2023-03-27T02:48:53.729Z,1.50
2023-03-27T02:50:03.501Z,1.50
2023-03-27T02:51:19.892Z,1.52
2023-03-27T02:52:39.162Z,2.03
2023-03-27T02:53:49.224Z,1.63
2023-03-27T02:55:05.950Z,1.73
2023-03-27T02:56:09.142Z,1.42
2023-03-27T02:57:15.822Z,1.40
2023-03-27T02:58:30.756Z,1.40
2023-03-27T02:59:36.671Z,1.50
2023-03-27T03:00:43.717Z,1.42
2023-03-27T03:01:45.536Z,1.50
2023-03-27T03:02:48.878Z,1.73
2023-03-27T03:03:58.804Z,1.48
2023-03-27T03:05:14.208Z,1.80
2023-03-27T03:06:15.654Z,1.70
2023-03-27T03:07:18.551Z,1.50
2023-03-27T03:08:21.645Z,1.58
2023-03-27T03:09:24.750Z,1.45
2023-03-27T03:10:27.125Z,1.20
2023-03-27T03:11:29.354Z,1.42
2023-03-27T03:12:30.970Z,1.60
2023-03-27T03:13:32.637Z,1.60
2023-03-27T03:14:37.884Z,2.03
2023-03-27T03:15:39.376Z,1.52
2023-03-27T03:16:41.037Z,1.33
2023-03-27T03:17:42.513Z,1.55
2023-03-27T03:18:43.945Z,1.42
2023-03-27T03:19:45.452Z,1.55
2023-03-27T03:20:46.918Z,1.58
2023-03-27T03:21:49.607Z,1.48
2023-03-27T03:22:51.061Z,1.70
2023-03-27T03:23:58.074Z,1.58
2023-03-27T03:25:00.325Z,1.45
2023-03-27T03:26:03.058Z,1.20
2023-03-27T03:27:05.569Z,1.23
2023-03-27T03:28:09.722Z,2.00
2023-03-27T03:29:12.858Z,1.45
2023-03-27T03:30:17.014Z,1.52
2023-03-27T03:31:19.169Z,1.42
2023-03-27T03:32:20.591Z,1.33
2023-03-27T03:33:22.045Z,1.63
2023-03-27T03:34:23.539Z,1.73
2023-03-27T03:35:25.871Z,2.08
2023-03-27T03:36:30.676Z,1.63
2023-03-27T03:37:38.610Z,2.00
2023-03-27T03:39:42.922Z,1.50
2023-03-27T03:40:44.333Z,1.67
2023-03-27T03:41:45.752Z,1.77
2023-03-27T03:42:49.398Z,1.20
2023-03-27T03:43:51.280Z,1.92
2023-03-27T03:44:52.738Z,1.55
2023-03-27T03:45:54.306Z,1.77
2023-03-27T03:46:55.996Z,2.20
2023-03-27T03:47:57.484Z,1.92
2023-03-27T03:48:59.547Z,1.73
2023-03-27T03:50:01.037Z,1.80
2023-03-27T03:51:02.516Z,1.80
2023-03-27T03:52:04.951Z,1.70
2023-03-27T03:53:06.641Z,1.63
2023-03-27T03:54:09.185Z,1.83
2023-03-27T03:55:11.931Z,1.50
2023-03-27T03:56:13.508Z,1.70
2023-03-27T03:57:15.282Z,1.35
2023-03-27T03:58:17.167Z,1.85
2023-03-27T03:59:18.609Z,1.88
2023-03-27T04:00:20.141Z,1.60
2023-03-27T04:01:22.913Z,1.85
2023-03-27T04:02:28.802Z,1.55
2023-03-27T04:03:32.294Z,2.10
2023-03-27T04:04:33.867Z,1.88
2023-03-27T04:05:37.157Z,1.75
2023-03-27T04:06:38.905Z,1.65
2023-03-27T04:07:41.117Z,2.28
2023-03-27T04:08:42.695Z,1.85
2023-03-27T04:09:44.164Z,2.10
2023-03-27T04:10:46.028Z,2.13
2023-03-27T04:11:47.518Z,1.95
2023-03-27T04:12:50.028Z,1.92
2023-03-27T04:13:51.509Z,1.80
2023-03-27T04:14:56.205Z,1.80
2023-03-27T04:16:01.572Z,2.30
2023-03-27T04:17:03.381Z,1.88
2023-03-27T04:18:05.565Z,1.92
2023-03-27T04:19:07.129Z,2.10
2023-03-27T04:20:08.994Z,2.20
2023-03-27T04:21:17.859Z,2.08
2023-03-27T04:22:22.674Z,2.22
2023-03-27T04:23:30.235Z,2.00
2023-03-27T04:24:31.643Z,1.63
2023-03-27T04:25:33.101Z,2.00
2023-03-27T04:26:35.365Z,2.45
2023-03-27T04:27:36.840Z,2.08
2023-03-27T04:28:39.421Z,2.15
2023-03-27T04:29:43.430Z,2.03
2023-03-27T04:30:45.411Z,1.98
2023-03-27T04:31:46.924Z,2.08
2023-03-27T04:32:50.223Z,1.95
2023-03-27T04:33:52.327Z,1.73
2023-03-27T04:34:56.862Z,2.20
2023-03-27T04:36:06.016Z,2.22
2023-03-27T04:37:08.986Z,2.10
2023-03-27T04:38:10.455Z,2.13
2023-03-27T04:39:11.908Z,2.10
2023-03-27T04:40:15.433Z,2.45
2023-03-27T04:41:17.582Z,2.03
2023-03-27T04:43:26.002Z,1.42
2023-03-27T04:44:27.405Z,1.85
2023-03-27T04:45:28.791Z,2.15
2023-03-27T04:46:30.227Z,1.95
2023-03-27T04:47:31.791Z,1.88
2023-03-27T04:48:34.988Z,1.85
2023-03-27T04:49:40.607Z,2.05
2023-03-27T04:50:49.140Z,1.80
2023-03-27T04:51:51.144Z,1.60
2023-03-27T04:52:58.436Z,1.75
2023-03-27T04:53:59.870Z,2.20
2023-03-27T04:55:01.679Z,2.15
2023-03-27T04:56:03.875Z,1.95
2023-03-27T04:57:07.403Z,1.85
2023-03-27T04:58:08.912Z,2.08
2023-03-27T04:59:10.360Z,2.25
2023-03-27T05:00:19.552Z,2.05
2023-03-27T05:01:21.180Z,1.83
2023-03-27T05:02:23.112Z,1.83
2023-03-27T05:03:25.805Z,1.98
2023-03-27T05:04:28.707Z,2.03
2023-03-27T05:05:30.158Z,2.13
2023-03-27T05:06:32.917Z,1.75
2023-03-27T05:07:34.812Z,2.17
2023-03-27T05:08:36.402Z,2.60
2023-03-27T05:09:38.257Z,1.75
2023-03-27T05:10:39.772Z,1.90
2023-03-27T05:11:41.241Z,1.65
2023-03-27T05:12:50.519Z,2.00
2023-03-27T05:13:51.966Z,1.95
2023-03-27T05:14:53.771Z,2.00
2023-03-27T05:15:55.194Z,2.55
2023-03-27T05:16:57.795Z,2.10
2023-03-27T05:18:00.547Z,2.08
2023-03-27T05:19:03.581Z,2.00
2023-03-27T05:20:08.039Z,2.15
2023-03-27T05:21:10.634Z,2.20
2023-03-27T05:22:13.744Z,2.38
2023-03-27T05:23:15.382Z,2.30
2023-03-27T05:24:17.021Z,1.98
2023-03-27T05:25:18.473Z,2.05
2023-03-27T05:26:20.001Z,2.10
2023-03-27T05:27:21.473Z,2.10
2023-03-27T05:28:23.719Z,2.03
2023-03-27T05:29:25.794Z,2.33
2023-03-27T05:31:29.681Z,1.90
2023-03-27T05:32:31.570Z,2.25
2023-03-27T05:33:32.966Z,2.33
2023-03-27T05:34:34.564Z,2.45
2023-03-27T05:35:36.372Z,1.98
2023-03-27T05:36:37.894Z,2.40
2023-03-27T05:37:39.289Z,2.08
2023-03-27T05:38:42.262Z,2.30
2023-03-27T05:39:46.670Z,2.30
2023-03-27T05:40:48.188Z,1.85
2023-03-27T05:41:49.769Z,2.50
2023-03-27T05:42:52.874Z,2.30
2023-03-27T05:43:54.286Z,2.10
2023-03-27T05:44:55.737Z,2.17
2023-03-27T05:45:57.201Z,2.25
2023-03-27T05:46:59.364Z,2.03
2023-03-27T05:49:04.388Z,1.92
2023-03-27T05:50:07.189Z,2.05
2023-03-27T05:51:09.439Z,2.03
2023-03-27T05:52:10.866Z,2.15
2023-03-27T05:53:12.421Z,2.20
2023-03-27T05:54:13.933Z,2.22
2023-03-27T05:55:15.643Z,2.03
2023-03-27T05:56:17.073Z,2.53
2023-03-27T05:57:19.286Z,2.45
2023-03-27T05:58:21.049Z,2.45
2023-03-27T05:59:22.640Z,2.45
2023-03-27T06:00:27.774Z,2.40
2023-03-27T06:01:29.490Z,2.25
2023-03-27T06:02:30.976Z,2.22
2023-03-27T06:03:35.570Z,2.33
2023-03-27T06:04:37.317Z,2.33
2023-03-27T06:05:40.288Z,2.63
2023-03-27T06:06:41.793Z,2.33
2023-03-27T06:07:43.944Z,2.47
2023-03-27T06:09:47.427Z,2.40
2023-03-27T06:10:48.892Z,2.50
2023-03-27T06:11:50.293Z,2.42
2023-03-27T06:13:03.716Z,2.47
2023-03-27T06:14:05.555Z,1.90
2023-03-27T06:15:09.196Z,2.58
2023-03-27T06:16:11.123Z,2.38
2023-03-27T06:17:12.865Z,2.35
2023-03-27T06:18:14.283Z,2.28
2023-03-27T06:19:16.836Z,2.13
2023-03-27T06:20:20.054Z,2.15
2023-03-27T06:21:22.519Z,2.45
2023-03-27T06:22:24.016Z,2.40
2023-03-27T06:23:25.563Z,2.58
2023-03-27T06:24:27.152Z,2.15
2023-03-27T06:25:34.660Z,2.25
2023-03-27T06:26:36.109Z,2.10
2023-03-27T06:27:37.954Z,2.42
2023-03-27T06:28:39.719Z,1.95
2023-03-27T06:29:41.685Z,2.38
2023-03-27T06:30:43.182Z,2.13
2023-03-27T06:31:44.800Z,1.80
2023-03-27T06:32:57.716Z,2.08
2023-03-27T06:33:59.342Z,2.13
2023-03-27T06:35:00.731Z,2.28
2023-03-27T06:36:02.326Z,2.38
2023-03-27T06:37:04.279Z,2.35
2023-03-27T06:38:06.501Z,2.30
2023-03-27T06:39:08.274Z,2.20
2023-03-27T06:40:10.327Z,2.03
2023-03-27T06:42:13.281Z,2.03
2023-03-27T06:43:18.062Z,1.98
2023-03-27T06:44:19.501Z,1.85
2023-03-27T06:45:22.453Z,2.08
2023-03-27T06:46:32.211Z,2.30
2023-03-27T06:47:51.571Z,2.13
2023-03-27T06:48:55.849Z,2.17
2023-03-27T06:49:57.322Z,2.42
2023-03-27T06:50:59.014Z,1.58
2023-03-27T06:52:00.549Z,2.00
2023-03-27T06:53:03.141Z,2.33
2023-03-27T06:54:05.850Z,2.00
2023-03-27T06:55:08.514Z,2.33
2023-03-27T06:56:16.594Z,2.13
2023-03-27T06:57:18.338Z,2.30
2023-03-27T06:58:19.859Z,2.00
2023-03-27T06:59:21.417Z,2.45
2023-03-27T07:00:26.451Z,1.55
2023-03-27T07:01:28.170Z,2.53
2023-03-27T07:02:29.663Z,2.05
2023-03-27T07:03:31.303Z,2.33
2023-03-27T07:04:33.384Z,2.15
2023-03-27T07:06:39.614Z,1.85
2023-03-27T07:07:42.340Z,1.77
2023-03-27T07:08:45.076Z,1.70
2023-03-27T07:09:49.896Z,2.13
2023-03-27T07:11:59.506Z,1.75
2023-03-27T07:13:00.926Z,1.73
2023-03-27T07:14:02.450Z,3.38
2023-03-27T07:15:06.182Z,2.10
2023-03-27T07:16:09.068Z,2.03
2023-03-27T07:17:10.664Z,1.73
2023-03-27T07:18:12.448Z,2.15
2023-03-27T07:19:13.876Z,2.15
2023-03-27T07:20:15.402Z,2.00
2023-03-27T07:21:16.960Z,2.13
2023-03-27T07:22:18.355Z,2.08
2023-03-27T07:23:19.811Z,2.20
2023-03-27T07:24:21.242Z,2.17
2023-03-27T07:25:23.748Z,2.25
2023-03-27T07:26:25.467Z,2.40
2023-03-27T07:27:27.181Z,2.33
2023-03-27T07:28:28.628Z,2.33
2023-03-27T07:29:30.114Z,2.10
2023-03-27T07:30:31.832Z,2.20
2023-03-27T07:31:51.577Z,2.22
2023-03-27T07:32:54.648Z,1.88
2023-03-27T07:33:57.801Z,2.65
2023-03-27T07:34:59.490Z,2.17
2023-03-27T07:36:06.808Z,2.70
2023-03-27T07:37:08.338Z,2.20
2023-03-27T07:38:11.314Z,2.35
2023-03-27T07:39:14.087Z,2.28
2023-03-27T07:40:16.503Z,2.13
2023-03-27T07:41:18.056Z,2.33
2023-03-27T07:42:19.513Z,2.33
2023-03-27T07:43:20.915Z,2.00
2023-03-27T07:44:22.403Z,2.35
2023-03-27T07:45:24.050Z,2.10
2023-03-27T07:46:26.289Z,2.03
2023-03-27T07:47:28.427Z,2.15
2023-03-27T07:49:39.934Z,2.45
2023-03-27T07:50:42.257Z,2.15
2023-03-27T07:51:44.596Z,2.10
2023-03-27T07:52:46.425Z,1.45
2023-03-27T07:53:49.127Z,2.38
2023-03-27T07:54:51.439Z,2.35
2023-03-27T07:55:54.486Z,2.15
2023-03-27T07:56:57.097Z,2.10
2023-03-27T07:58:02.532Z,1.98
2023-03-27T07:59:05.009Z,1.80
2023-03-27T08:00:16.845Z,1.92
2023-03-27T08:01:18.713Z,2.42
2023-03-27T08:02:20.368Z,1.75
2023-03-27T08:03:22.030Z,1.92
2023-03-27T08:04:23.890Z,1.58
2023-03-27T08:05:25.351Z,1.98
2023-03-27T08:06:27.293Z,1.77
2023-03-27T08:07:30.154Z,2.22
2023-03-27T08:08:31.643Z,1.85
2023-03-27T08:09:33.050Z,1.80
2023-03-27T08:10:34.481Z,2.00
2023-03-27T08:11:38.357Z,1.77
2023-03-27T08:12:39.893Z,1.73
2023-03-27T08:13:41.339Z,1.60
2023-03-27T08:14:45.550Z,2.03
2023-03-27T08:15:47.230Z,1.80
2023-03-27T08:16:48.780Z,1.92
2023-03-27T08:17:53.753Z,1.73
2023-03-27T08:18:55.583Z,1.98
2023-03-27T08:19:57.142Z,2.50
2023-03-27T08:21:00.356Z,1.92
2023-03-27T08:22:01.817Z,1.75
2023-03-27T08:23:04.193Z,1.83
2023-03-27T08:24:07.093Z,1.77
2023-03-27T08:25:10.256Z,1.75
2023-03-27T08:26:13.795Z,1.50
2023-03-27T08:27:15.870Z,1.73
2023-03-27T08:29:18.643Z,2.10
2023-03-27T08:30:21.567Z,1.67
2023-03-27T08:31:24.142Z,2.17
2023-03-27T08:32:26.400Z,1.63
2023-03-27T08:33:27.989Z,1.40
2023-03-27T08:34:29.404Z,2.25
2023-03-27T08:35:30.973Z,1.60
2023-03-27T08:36:34.400Z,1.77
2023-03-27T08:37:36.282Z,2.00
2023-03-27T08:38:39.409Z,2.22
2023-03-27T08:39:41.129Z,1.83
2023-03-27T08:40:53.829Z,1.85
2023-03-27T08:41:56.332Z,1.75
2023-03-27T08:43:03.677Z,1.63
2023-03-27T08:44:10.987Z,2.03
2023-03-27T08:45:28.066Z,1.42
2023-03-27T08:46:58.497Z,1.55
2023-03-27T08:48:09.088Z,1.77
2023-03-27T08:49:18.701Z,1.58
2023-03-27T08:50:33.846Z,1.63
2023-03-27T08:51:41.712Z,2.08
2023-03-27T08:52:44.503Z,1.95
2023-03-27T08:53:56.203Z,1.63
2023-03-27T08:55:06.506Z,1.40
2023-03-27T08:56:18.309Z,1.67
2023-03-27T08:57:22.648Z,1.98
2023-03-27T08:58:24.061Z,1.75
2023-03-27T08:59:29.043Z,1.58
2023-03-27T09:00:38.151Z,1.60
2023-03-27T09:01:45.559Z,1.80
2023-03-27T09:03:18.226Z,1.70
2023-03-27T09:04:50.784Z,1.80
2023-03-27T09:06:15.452Z,1.42
2023-03-27T09:07:48.016Z,1.45
2023-03-27T09:08:56.985Z,1.50
2023-03-27T09:10:15.297Z,1.50
2023-03-27T09:11:36.939Z,1.40
2023-03-27T09:13:07.799Z,1.85
2023-03-27T09:14:31.458Z,1.95
2023-03-27T09:15:36.876Z,1.17
2023-03-27T09:16:49.313Z,1.65
2023-03-27T09:18:10.456Z,1.50
2023-03-27T09:19:42.840Z,1.42
2023-03-27T09:20:49.211Z,1.33
2023-03-27T09:22:01.002Z,1.48
2023-03-27T09:23:11.058Z,1.50
2023-03-27T09:24:28.167Z,1.88
2023-03-27T09:25:39.584Z,1.77
2023-03-27T09:26:41.420Z,1.70
2023-03-27T09:27:43.881Z,2.33
2023-03-27T09:28:55.046Z,1.75
2023-03-27T09:30:18.738Z,1.70
2023-03-27T09:31:45.992Z,2.03
2023-03-27T09:32:51.495Z,1.85
2023-03-27T09:33:54.587Z,2.03
2023-03-27T09:34:55.982Z,1.67
2023-03-27T09:35:58.817Z,1.88
2023-03-27T09:37:00.891Z,2.15
2023-03-27T09:38:24.790Z,1.40
2023-03-27T09:39:32.567Z,1.60
2023-03-27T09:40:45.932Z,2.28
2023-03-27T09:41:51.616Z,2.08
2023-03-27T09:42:54.521Z,1.88
2023-03-27T09:44:04.539Z,1.50
2023-03-27T09:45:07.918Z,1.52
2023-03-27T09:46:12.313Z,1.63
2023-03-27T09:47:23.052Z,1.60
2023-03-27T09:48:35.789Z,1.83
2023-03-27T09:49:40.904Z,1.17
2023-03-27T09:50:49.106Z,1.23
2023-03-27T09:51:52.654Z,1.67
2023-03-27T09:53:07.450Z,2.10
2023-03-27T09:54:12.743Z,1.20
2023-03-27T09:55:30.551Z,1.63
2023-03-27T09:56:36.562Z,1.35
2023-03-27T09:57:38.559Z,1.58
2023-03-27T09:58:49.004Z,1.90
2023-03-27T10:00:08.041Z,1.50
2023-03-27T10:01:27.556Z,1.42
2023-03-27T10:02:31.556Z,1.60
2023-03-27T10:03:49.602Z,1.70
2023-03-27T10:05:22.118Z,1.10
2023-03-27T10:06:41.166Z,1.48
2023-03-27T10:07:42.993Z,1.60
2023-03-27T10:08:49.835Z,1.55
2023-03-27T10:10:11.769Z,1.33
2023-03-27T10:11:22.951Z,1.38
2023-03-27T10:12:24.373Z,1.38
2023-03-27T10:13:29.202Z,1.83
2023-03-27T10:14:34.568Z,1.30
2023-03-27T10:15:39.338Z,1.30
2023-03-27T10:16:42.270Z,1.52
2023-03-27T10:17:48.512Z,1.35
2023-03-27T10:18:54.872Z,1.50
2023-03-27T10:20:25.720Z,1.58
2023-03-27T10:21:42.566Z,1.20
2023-03-27T10:22:55.431Z,1.35
2023-03-27T10:24:04.054Z,1.10
2023-03-27T10:25:16.395Z,1.00
2023-03-27T10:26:26.416Z,1.35
2023-03-27T10:27:32.381Z,1.27
2023-03-27T10:28:36.389Z,1.15
2023-03-27T10:29:40.963Z,1.33
2023-03-27T10:30:42.924Z,1.13
2023-03-27T10:31:51.091Z,1.40
2023-03-27T10:32:52.870Z,1.30
2023-03-27T10:33:54.361Z,1.13
2023-03-27T10:34:57.959Z,1.20
2023-03-27T10:36:00.496Z,1.30
2023-03-27T10:37:04.843Z,1.05
2023-03-27T10:38:12.449Z,0.98
2023-03-27T10:39:14.591Z,1.55
2023-03-27T10:40:26.331Z,1.20
2023-03-27T10:41:29.214Z,1.20
2023-03-27T10:42:32.602Z,1.40
2023-03-27T10:43:42.612Z,1.20
2023-03-27T10:44:47.153Z,1.33
2023-03-27T10:45:56.395Z,1.10
2023-03-27T10:46:58.271Z,1.23
2023-03-27T10:48:01.722Z,1.10
2023-03-27T10:49:21.527Z,1.05
2023-03-27T10:50:34.298Z,1.20
2023-03-27T10:51:53.794Z,1.02
2023-03-27T10:53:14.150Z,1.15
2023-03-27T10:54:18.982Z,1.20
2023-03-27T10:55:24.679Z,1.48
2023-03-27T10:56:34.675Z,1.17
2023-03-27T10:57:38.056Z,1.65
2023-03-27T10:58:47.095Z,1.48
2023-03-27T10:59:56.083Z,1.48
2023-03-27T11:01:08.591Z,1.38
2023-03-27T11:02:31.956Z,1.08
2023-03-27T11:03:42.473Z,1.67
2023-03-27T11:04:49.874Z,1.40
2023-03-27T11:05:54.642Z,1.65
2023-03-27T11:07:00.823Z,1.20
2023-03-27T11:08:15.741Z,1.38
2023-03-27T11:09:26.780Z,1.10
2023-03-27T11:10:43.229Z,1.10
2023-03-27T11:11:54.052Z,1.13
2023-03-27T11:12:59.534Z,1.20
2023-03-27T11:14:05.305Z,1.02
2023-03-27T11:15:18.123Z,1.00
2023-03-27T11:16:55.326Z,1.40
2023-03-27T11:18:10.349Z,1.27
2023-03-27T11:19:22.315Z,1.20
2023-03-27T11:20:40.134Z,1.25
2023-03-27T11:21:45.264Z,1.30
2023-03-27T11:22:53.653Z,1.30
2023-03-27T11:24:01.673Z,1.20
2023-03-27T11:26:19.602Z,1.30
2023-03-27T11:27:41.383Z,1.40
2023-03-27T11:28:53.019Z,1.38
2023-03-27T11:30:25.434Z,1.58
2023-03-27T11:31:38.067Z,1.35
2023-03-27T11:33:05.765Z,1.63
2023-03-27T11:34:29.058Z,1.33
2023-03-27T11:35:39.062Z,1.13
2023-03-27T11:36:55.181Z,1.30
2023-03-27T11:38:03.915Z,1.25
2023-03-27T11:39:16.262Z,1.30
2023-03-27T11:40:24.571Z,1.20
2023-03-27T11:41:26.958Z,1.00
2023-03-27T11:42:36.784Z,1.48
2023-03-27T11:43:38.953Z,1.13
2023-03-27T11:44:40.445Z,1.40
2023-03-27T11:46:06.724Z,1.45
2023-03-27T11:47:45.490Z,1.10
2023-03-27T11:49:05.424Z,1.20
2023-03-27T11:50:38.988Z,1.70
2023-03-27T11:51:43.303Z,1.27
2023-03-27T11:53:00.054Z,1.23
2023-03-27T11:54:08.066Z,1.23
2023-03-27T11:56:35.534Z,2.03
2023-03-27T11:58:01.998Z,1.75
2023-03-27T11:59:25.347Z,1.40
2023-03-27T12:00:49.780Z,1.30
2023-03-27T12:02:03.419Z,1.00
2023-03-27T12:03:42.832Z,1.05
2023-03-27T12:04:49.062Z,0.80
2023-03-27T12:06:17.551Z,1.20
2023-03-27T12:07:36.500Z,1.40
2023-03-27T12:08:51.958Z,1.35
2023-03-27T12:11:05.290Z,0.80
2023-03-27T12:12:50.245Z,1.00
2023-03-27T12:14:01.625Z,1.50
2023-03-27T12:15:39.335Z,1.30
2023-03-27T12:16:44.109Z,1.00
2023-03-27T12:18:09.084Z,1.10
2023-03-27T12:19:36.424Z,0.95
2023-03-27T12:21:04.632Z,1.17
2023-03-27T12:22:40.629Z,0.90
2023-03-27T12:24:07.303Z,0.90
2023-03-27T12:25:33.588Z,1.00
2023-03-27T12:26:48.439Z,1.00
2023-03-27T12:28:23.567Z,1.42
2023-03-27T12:29:42.843Z,1.40
2023-03-27T12:31:13.356Z,1.52
2023-03-27T12:32:54.644Z,1.50
2023-03-27T12:34:20.157Z,1.15
2023-03-27T12:35:24.449Z,1.38
2023-03-27T12:36:30.938Z,1.10
2023-03-27T12:37:58.398Z,1.40
2023-03-27T12:39:00.461Z,1.40
2023-03-27T12:41:06.905Z,1.40
2023-03-27T12:42:35.456Z,1.33
2023-03-27T12:43:47.359Z,1.42
2023-03-27T12:45:05.308Z,1.30
2023-03-27T12:46:07.104Z,1.20
2023-03-27T12:47:23.934Z,1.10
2023-03-27T12:48:25.925Z,1.25
2023-03-27T12:50:52.579Z,1.40
2023-03-27T12:51:54.123Z,1.10
2023-03-27T12:52:56.722Z,1.10
2023-03-27T12:53:59.340Z,1.08
2023-03-27T12:55:31.141Z,1.20
2023-03-27T12:56:36.002Z,1.10
2023-03-27T12:57:44.968Z,1.02
2023-03-27T12:58:49.409Z,1.42
2023-03-27T12:59:50.773Z,1.55
2023-03-27T13:00:59.961Z,1.23
2023-03-27T13:02:05.085Z,1.33
2023-03-27T13:03:39.836Z,1.10
2023-03-27T13:05:27.427Z,1.10
2023-03-27T13:06:33.050Z,1.13
2023-03-27T13:07:37.196Z,1.30
2023-03-27T13:08:53.453Z,1.00
2023-03-27T13:09:58.064Z,1.10
2023-03-27T13:11:11.883Z,1.05
2023-03-27T13:12:32.083Z,1.08
2023-03-27T13:14:07.323Z,1.13
2023-03-27T13:15:22.593Z,1.35
2023-03-27T13:16:32.925Z,1.02
2023-03-27T13:18:00.910Z,1.40
2023-03-27T13:19:29.669Z,1.10
2023-03-27T13:20:51.969Z,1.20
2023-03-27T13:22:23.612Z,1.50
2023-03-27T13:23:54.643Z,1.05
2023-03-27T13:25:32.407Z,1.38
2023-03-27T13:27:02.528Z,1.58
2023-03-27T13:28:16.176Z,1.42
2023-03-27T13:29:24.619Z,1.00
2023-03-27T13:30:50.590Z,1.08
2023-03-27T13:31:57.986Z,1.08
2023-03-27T13:33:10.976Z,1.23
2023-03-27T13:34:27.583Z,0.98
2023-03-27T13:35:41.218Z,1.10
2023-03-27T13:36:50.223Z,1.10
2023-03-27T13:38:11.484Z,0.80
2023-03-27T13:39:24.470Z,1.33
2023-03-27T13:40:35.516Z,1.00
2023-03-27T13:41:46.114Z,0.85
2023-03-27T13:42:53.169Z,1.25
2023-03-27T13:43:55.190Z,1.00
2023-03-27T13:46:07.790Z,0.65
2023-03-27T13:47:23.561Z,0.90
2023-03-27T13:49:12.814Z,0.70
2023-03-27T13:50:40.977Z,0.93
2023-03-27T13:51:57.326Z,0.90
2023-03-27T13:53:17.231Z,0.80
2023-03-27T13:54:27.836Z,0.90
2023-03-27T13:55:48.259Z,0.90
2023-03-27T13:57:21.593Z,0.80
2023-03-27T13:58:22.952Z,1.00
2023-03-27T13:59:41.696Z,1.20
2023-03-27T14:01:03.367Z,0.98
2023-03-27T14:02:21.109Z,1.00
2023-03-27T14:03:41.819Z,1.20
2023-03-27T14:05:16.144Z,0.88
2023-03-27T14:06:52.330Z,1.20
2023-03-27T14:07:53.776Z,1.13
2023-03-27T14:09:13.214Z,1.33
2023-03-27T14:10:23.544Z,0.98
2023-03-27T14:11:30.667Z,1.02
2023-03-27T14:12:40.617Z,1.30
2023-03-27T14:14:23.777Z,1.52
2023-03-27T14:15:46.314Z,1.38
2023-03-27T14:16:55.492Z,1.33
2023-03-27T14:18:34.194Z,1.05
2023-03-27T14:19:54.778Z,1.42
2023-03-27T14:21:00.645Z,1.35
2023-03-27T14:22:14.505Z,1.73
2023-03-27T14:23:25.306Z,1.65
2023-03-27T14:24:30.471Z,1.30
2023-03-27T14:25:36.379Z,1.77
2023-03-27T14:26:42.229Z,1.65
2023-03-27T14:27:48.739Z,1.48
2023-03-27T14:28:54.354Z,1.30
2023-03-27T14:30:20.138Z,1.52
2023-03-27T14:31:23.840Z,1.10
2023-03-27T14:32:25.312Z,1.40
2023-03-27T14:33:28.542Z,1.60
2023-03-27T14:34:40.154Z,1.30
2023-03-27T14:36:02.306Z,1.95
2023-03-27T14:37:28.762Z,1.23
2023-03-27T14:38:33.132Z,1.30
2023-03-27T14:39:38.242Z,1.20
2023-03-27T14:40:50.318Z,1.30
2023-03-27T14:41:56.580Z,1.27
2023-03-27T14:43:00.641Z,1.23
2023-03-27T14:44:04.138Z,1.40
2023-03-27T14:45:27.203Z,1.10
2023-03-27T14:46:29.200Z,1.23
2023-03-27T14:48:37.438Z,1.25
2023-03-27T14:49:46.825Z,1.40
2023-03-27T14:50:53.123Z,1.23
2023-03-27T14:52:03.881Z,1.60
2023-03-27T14:53:10.899Z,1.63
2023-03-27T14:54:19.310Z,1.50
2023-03-27T14:55:23.543Z,1.30
2023-03-27T14:56:47.395Z,1.25
2023-03-27T14:57:51.226Z,2.03
2023-03-27T14:58:56.524Z,1.40
2023-03-27T14:59:58.663Z,1.40
2023-03-27T15:01:01.339Z,1.42
2023-03-27T15:02:14.973Z,1.40
2023-03-27T15:03:20.000Z,2.08
2023-03-27T15:04:21.551Z,1.70
2023-03-27T15:05:23.213Z,2.97
2023-03-27T15:06:27.503Z,2.92
2023-03-27T15:07:34.249Z,2.10
2023-03-27T15:08:37.101Z,2.50
2023-03-27T15:09:38.758Z,2.40
2023-03-27T15:10:40.598Z,3.50
2023-03-27T15:11:47.714Z,5.57
2023-03-27T15:12:49.570Z,2.72
2023-03-27T15:13:51.049Z,4.63
2023-03-27T15:14:53.767Z,7.43
2023-03-27T15:15:59.105Z,7.65
2023-03-27T15:17:14.873Z,2.15
2023-03-27T15:18:37.908Z,1.40
2023-03-27T15:19:49.187Z,2.25
2023-03-27T15:20:52.316Z,3.72
2023-03-27T15:22:02.151Z,10.05
2023-03-27T15:23:31.128Z,6.25
2023-03-27T15:24:38.642Z,1.75
2023-03-27T15:26:04.574Z,2.28
2023-03-27T15:27:17.092Z,1.50
2023-03-27T15:28:25.121Z,1.52
2023-03-27T15:30:37.315Z,4.20
2023-03-27T15:31:43.283Z,4.15
2023-03-27T15:32:50.618Z,6.57
2023-03-27T15:34:02.186Z,6.82
2023-03-27T15:35:05.286Z,2.40
2023-03-27T15:36:22.390Z,2.47
2023-03-27T15:37:28.407Z,2.53
2023-03-27T15:38:33.399Z,2.00
2023-03-27T15:39:37.678Z,7.68
2023-03-27T15:40:42.990Z,1.60